createdAt,value
2019-02-08T00:03:38.337Z,8.18
2019-02-08T00:08:46.229Z,8.28
2019-02-08T00:13:53.955Z,7.42
2019-02-08T00:19:01.573Z,6.93
2019-02-08T00:24:09.318Z,7.14
2019-02-08T00:29:16.946Z,10.76
2019-02-08T00:34:24.831Z,8.46
2019-02-08T00:39:32.438Z,8.04
2019-02-08T00:44:40.052Z,8.52
2019-02-08T00:49:47.667Z,10.82
2019-02-08T00:54:55.283Z,15.31
2019-02-08T01:00:02.925Z,7.73
2019-02-08T01:05:10.566Z,9.81
2019-02-08T01:10:18.273Z,8.31
2019-02-08T01:15:25.934Z,8.11
2019-02-08T01:20:33.601Z,11.37
2019-02-08T01:25:41.187Z,10.31
2019-02-08T01:30:48.922Z,9.38
2019-02-08T01:35:56.721Z,10.51
2019-02-08T01:41:04.517Z,10.30
2019-02-08T01:46:12.237Z,9.52
2019-02-08T01:51:19.829Z,9.66
2019-02-08T01:56:27.575Z,9.12
2019-02-08T02:01:35.234Z,10.23
2019-02-08T02:06:42.985Z,14.57
2019-02-08T02:11:50.620Z,12.11
2019-02-08T02:16:58.206Z,10.57
2019-02-08T02:22:05.922Z,11.00
2019-02-08T02:27:13.598Z,11.65
2019-02-08T02:32:21.227Z,11.72
2019-02-08T02:37:29.103Z,14.18
2019-02-08T02:42:36.930Z,14.79
2019-02-08T02:47:44.538Z,13.16
2019-02-08T02:52:52.173Z,11.42
2019-02-08T02:57:59.748Z,19.53
2019-02-08T03:03:07.926Z,13.80
2019-02-08T03:08:15.870Z,12.26
2019-02-08T03:13:23.836Z,11.01
2019-02-08T03:18:31.505Z,12.98
2019-02-08T03:23:39.154Z,12.80
2019-02-08T03:28:46.902Z,11.21
2019-02-08T03:33:54.650Z,11.54
2019-02-08T03:39:02.482Z,12.22
2019-02-08T03:44:10.198Z,13.43
2019-02-08T03:49:18.057Z,15.04
2019-02-08T03:54:25.925Z,11.01
2019-02-08T03:59:34.234Z,11.65
2019-02-08T04:04:41.886Z,11.49
2019-02-08T04:09:49.501Z,11.43
2019-02-08T04:14:57.241Z,11.75
2019-02-08T04:20:04.969Z,12.08
2019-02-08T04:25:12.664Z,11.27
2019-02-08T04:30:20.384Z,11.83
2019-02-08T04:35:28.002Z,10.83
2019-02-08T04:40:35.714Z,10.76
2019-02-08T04:45:43.497Z,9.16
2019-02-08T04:50:51.113Z,8.58
2019-02-08T04:55:58.977Z,8.44
2019-02-08T05:01:07.494Z,15.73
2019-02-08T05:06:15.198Z,11.04
2019-02-08T05:11:23.750Z,8.25
2019-02-08T05:16:31.565Z,8.20
2019-02-08T05:21:39.341Z,14.84
2019-02-08T05:26:47.122Z,8.47
2019-02-08T05:31:55.893Z,8.08
2019-02-08T05:37:03.507Z,7.69
2019-02-08T05:42:11.276Z,6.78
2019-02-08T05:47:19.029Z,16.53
2019-02-08T05:52:26.813Z,6.55
2019-02-08T05:57:34.506Z,7.15
2019-02-08T06:02:42.295Z,8.20
2019-02-08T06:07:50.037Z,7.27
2019-02-08T06:12:57.849Z,6.85
2019-02-08T06:18:05.646Z,6.35
2019-02-08T06:23:13.430Z,7.65
2019-02-08T06:28:21.357Z,7.04
2019-02-08T06:33:29.064Z,6.95
2019-02-08T06:38:36.661Z,8.50
2019-02-08T06:43:44.485Z,7.67
2019-02-08T06:48:52.168Z,9.13
2019-02-08T06:53:59.862Z,6.19
2019-02-08T06:59:07.542Z,6.30
2019-02-08T07:04:15.305Z,9.50
2019-02-08T07:09:22.938Z,8.56
2019-02-08T07:14:30.786Z,8.70
2019-02-08T07:19:38.391Z,8.08
2019-02-08T07:24:46.134Z,6.47
2019-02-08T07:29:53.790Z,6.68
2019-02-08T07:35:01.593Z,6.63
2019-02-08T07:40:09.201Z,7.32
2019-02-08T07:45:16.841Z,5.54
2019-02-08T07:50:24.503Z,6.47
2019-02-08T07:55:32.340Z,6.23
2019-02-08T08:00:40.886Z,7.12
2019-02-08T08:05:48.577Z,7.50
2019-02-08T08:10:56.241Z,8.15
2019-02-08T08:16:04.829Z,8.38
2019-02-08T08:21:12.705Z,7.25
2019-02-08T08:26:20.426Z,8.18
2019-02-08T08:31:31.491Z,7.38
2019-02-08T08:36:29.091Z,9.45
2019-02-08T08:41:36.850Z,9.63
2019-02-08T08:46:44.479Z,7.39
2019-02-08T08:51:52.102Z,8.34
2019-02-08T08:56:59.925Z,18.57
2019-02-08T09:02:07.705Z,10.48
2019-02-08T09:07:16.661Z,11.02
2019-02-08T09:12:23.948Z,11.66
2019-02-08T09:17:31.651Z,9.47
2019-02-08T09:22:39.277Z,8.41
2019-02-08T09:27:47.074Z,9.72
2019-02-08T09:32:54.701Z,10.13
2019-02-08T09:38:02.425Z,9.44
2019-02-08T09:43:10.022Z,9.79
2019-02-08T09:48:31.021Z,11.24
2019-02-08T09:53:18.625Z,12.64
2019-02-08T09:58:26.491Z,8.90
2019-02-08T10:03:35.229Z,11.80
2019-02-08T10:08:43.109Z,10.29
2019-02-08T10:13:50.769Z,10.56
2019-02-08T10:18:58.508Z,11.61
2019-02-08T10:24:06.276Z,10.13
2019-02-08T10:29:13.890Z,10.58
2019-02-08T10:34:21.593Z,9.46
2019-02-08T10:39:29.265Z,11.07
2019-02-08T10:44:37.163Z,12.56
2019-02-08T10:49:44.884Z,10.83
2019-02-08T10:54:52.699Z,9.40
2019-02-08T11:00:00.286Z,10.63
2019-02-08T11:05:08.035Z,10.38
2019-02-08T11:10:15.773Z,10.66
2019-02-08T11:15:23.594Z,10.77
2019-02-08T11:20:31.274Z,11.05
2019-02-08T11:25:39.210Z,10.58
2019-02-08T11:30:46.954Z,9.67
2019-02-08T11:35:54.777Z,11.15
2019-02-08T11:41:02.394Z,8.00
2019-02-08T11:46:10.373Z,8.88
2019-02-08T11:51:18.205Z,8.22
2019-02-08T11:56:30.016Z,8.34
2019-02-08T12:01:33.454Z,15.60
2019-02-08T12:06:41.129Z,8.11
2019-02-08T12:11:48.788Z,7.57
2019-02-08T12:16:56.780Z,7.35
2019-02-08T12:22:04.614Z,7.74
2019-02-08T12:27:12.439Z,6.93
2019-02-08T12:32:20.043Z,6.54
2019-02-08T12:37:27.741Z,7.89
2019-02-08T12:42:35.354Z,7.09
2019-02-08T12:47:43.133Z,6.83
2019-02-08T12:52:50.739Z,8.30
2019-02-08T12:57:58.546Z,7.12
2019-02-08T13:03:06.206Z,6.39
2019-02-08T13:08:14.021Z,7.29
2019-02-08T13:13:21.693Z,6.40
2019-02-08T13:18:29.290Z,7.19
2019-02-08T13:23:36.920Z,6.90
2019-02-08T13:28:44.541Z,6.70
2019-02-08T13:33:52.234Z,7.02
2019-02-08T13:38:59.886Z,6.79
2019-02-08T13:44:07.746Z,6.39
2019-02-08T13:49:16.498Z,6.53
2019-02-08T13:54:24.226Z,6.52
2019-02-08T13:59:32.088Z,5.73
2019-02-08T14:04:39.825Z,5.63
2019-02-08T14:09:47.569Z,5.21
2019-02-08T14:14:56.666Z,5.00
2019-02-08T14:20:04.329Z,4.64
2019-02-08T14:25:12.110Z,5.01
2019-02-08T14:30:20.089Z,4.62
2019-02-08T14:35:27.835Z,4.78
2019-02-08T14:40:35.581Z,4.98
2019-02-08T14:45:43.356Z,4.63
2019-02-08T14:50:51.109Z,4.24
2019-02-08T14:55:58.825Z,4.11
2019-02-08T15:01:06.531Z,4.06
2019-02-08T15:06:14.158Z,4.18
2019-02-08T15:11:21.862Z,4.06
2019-02-08T15:16:29.474Z,3.84
2019-02-08T15:21:37.191Z,4.19
2019-02-08T15:26:45.097Z,3.81
2019-02-08T15:31:52.864Z,3.69
2019-02-08T15:37:00.746Z,3.85
2019-02-08T15:42:08.541Z,3.67
2019-02-08T15:47:16.233Z,3.51
2019-02-08T15:52:23.934Z,4.00
2019-02-08T15:57:32.461Z,3.44
2019-02-08T16:02:38.721Z,3.39
2019-02-08T16:07:46.357Z,3.55
2019-02-08T16:12:54.098Z,3.84
2019-02-08T16:18:01.813Z,3.86
2019-02-08T16:23:09.578Z,3.90
2019-02-08T16:28:17.341Z,3.61
2019-02-08T16:33:25.272Z,4.37
2019-02-08T16:38:32.957Z,3.67
2019-02-08T16:43:40.888Z,3.70
2019-02-08T16:48:48.511Z,3.61
2019-02-08T16:53:56.245Z,3.97
2019-02-08T16:59:17.257Z,3.50
2019-02-08T17:04:04.918Z,3.89
2019-02-08T17:09:16.026Z,3.36
2019-02-08T17:14:13.845Z,3.43
2019-02-08T17:19:21.739Z,3.87
2019-02-08T17:24:29.391Z,3.11
2019-02-08T17:29:38.387Z,3.39
2019-02-08T17:34:46.404Z,3.36
2019-02-08T17:39:55.879Z,3.51
2019-02-08T17:45:04.025Z,4.04
2019-02-08T17:50:11.633Z,4.96
2019-02-08T17:55:19.665Z,8.09
2019-02-08T18:00:27.430Z,4.56
2019-02-08T18:05:35.104Z,3.82
2019-02-08T18:10:42.795Z,7.79
2019-02-08T18:15:50.537Z,3.96
2019-02-08T18:21:01.357Z,4.36
2019-02-08T18:26:01.233Z,4.40
2019-02-08T18:31:08.975Z,4.03
2019-02-08T18:36:16.580Z,4.91
2019-02-08T18:41:25.094Z,4.11
2019-02-08T18:46:32.809Z,4.23
2019-02-08T18:51:40.717Z,4.60
2019-02-08T18:56:48.484Z,5.92
2019-02-08T19:01:56.378Z,4.59
2019-02-08T19:07:04.173Z,4.39
2019-02-08T19:12:12.766Z,3.67
2019-02-08T19:17:21.756Z,4.33
2019-02-08T19:22:29.345Z,3.83
2019-02-08T19:27:38.316Z,3.52
2019-02-08T19:32:46.072Z,4.72
2019-02-08T19:37:53.990Z,3.24
2019-02-08T19:43:01.849Z,4.85
2019-02-08T19:48:09.825Z,3.55
2019-02-08T19:53:17.541Z,3.16
2019-02-08T19:58:25.423Z,3.98
2019-02-08T20:03:34.428Z,4.49
2019-02-08T20:08:42.133Z,3.87
2019-02-08T20:13:50.762Z,3.83
2019-02-08T20:18:58.983Z,4.02
2019-02-08T20:24:07.122Z,4.29
2019-02-08T20:29:15.177Z,4.59
2019-02-08T20:34:23.790Z,5.14
2019-02-08T20:39:31.855Z,4.19
2019-02-08T20:44:39.529Z,4.86
2019-02-08T20:49:47.485Z,4.51
2019-02-08T20:54:55.649Z,5.21
2019-02-08T21:00:03.725Z,5.05
2019-02-08T21:05:11.318Z,4.06
2019-02-08T21:10:19.233Z,3.79
2019-02-08T21:15:27.208Z,3.99
2019-02-08T21:20:34.897Z,3.58
2019-02-08T21:25:42.629Z,3.29
2019-02-08T21:30:50.369Z,3.66
2019-02-08T21:35:58.155Z,7.12
2019-02-08T21:41:05.816Z,3.28
2019-02-08T21:46:13.467Z,4.00
2019-02-08T21:51:21.125Z,3.95
2019-02-08T21:56:28.841Z,3.82
2019-02-08T22:01:36.603Z,4.55
2019-02-08T22:06:44.561Z,4.98
2019-02-08T22:11:52.335Z,3.80
2019-02-08T22:16:59.947Z,4.50
2019-02-08T22:22:07.681Z,4.03
2019-02-08T22:27:15.420Z,4.12
2019-02-08T22:32:23.038Z,5.11
2019-02-08T22:37:30.873Z,5.44
2019-02-08T22:42:38.599Z,6.57
2019-02-08T22:47:46.202Z,4.16
2019-02-08T22:52:53.818Z,6.33
2019-02-08T22:58:01.737Z,4.86
2019-02-08T23:03:09.592Z,6.14
2019-02-08T23:08:17.441Z,5.04
2019-02-08T23:13:25.407Z,4.58
2019-02-08T23:18:33.089Z,4.96
2019-02-08T23:23:40.843Z,4.37
2019-02-08T23:28:48.647Z,5.08
2019-02-08T23:33:56.281Z,3.88
2019-02-08T23:39:04.056Z,4.57
2019-02-08T23:44:11.798Z,4.17
2019-02-08T23:49:19.501Z,4.14
2019-02-08T23:54:27.286Z,4.04
2019-02-08T23:59:38.065Z,3.96
